VUELOS DE BAJO NIVEL DESDE SUPERFICIE HASTA 24,000 PIES.

 
VALIDO DESDE 231200Z...…………………….…………………HASTA 240000Z

 

SANTO DOMINGO FIR...PORT-AU-PRINCE FIR HISPANIOLA...SCT020 SCT070. OCNL BKN020 BKN070. TOP ABV FL240. WDLY SCT SHRA. ISOL TSRA. OTLK...VFR SHRA TSRA..06Z MVFR CIG BR.WTRS...SCT020 SCT-BKN060. OCNL BKN020 BKN050. TOP ABV FL240.WDLY SCT SHRA. ISOL TSRA. OTLK...VFR SHRA TSRA...18Z MVFR CIG SHRA TSRA BR.

 

 

 

5,000 FT.

10,000 FT.

18,000 FT.

24,000 FT.

MDSD

1815KT+20ºC

1810KT+10ºC

2510KT-08ºC

2315KT-19ºC

MTPP

1815KT+20ºC

1810KT+10ºC

    2510KT-08ºC

2315KT-19ºC

TJSJ

1510KT+21ºC

1715KT+09ºC

1805KT-07ºC

2315KT-19ºC

 

 

 


TAF 

TAF MDPP 231000Z 2312/2412 00000KT 9999 BKN016 SCT070=      

TAF MDST 231000Z 2312/2412 13005 9999 SCT016 BKN300 BECMG 2314/2316 11016KT=

TAF 231000Z 2312/2412 07010KT 9999 SCT018 PROB30 2308/2311 8000 -RA SCT018 SCT070=

TAF MDBH 231000Z 2312/2412 00000KT 9999 FEW016CB FEW018 BECMG 2311/2313 13004KT=

TAF MDJB 231000Z 2312/2412 00000KT 9999 SCT018 BECMG 2313/2315 36008KT=

TAF MDSD 231000Z 2312/2412 04004KT 9999 FEW018 SCT300 BECMG 2316/2318 13006KT PROB30 2317/2322 8000 -RA FEW014CB SCT016 SCT070=

TAF MDLR 231000Z 2312/2412 00000KT 9999 SCT018 SCT070 BECMG 2314/2316 07012KT PROB30 2317/2322 7000 -RA FEW014CB SCT016 SCT070=

TAF MDCY 231000Z 2312/2412 00000KT 9999 SCT018 BECMG 2313/2315 06008KT=

 

KMIA 230549Z 2306/2406 15005KT P6SM FEW025 FM231400 16010KT P6SM SCT030 SCT250 
FM231600 17015G25KT P6SM SCT030 SCT060 FM240000 19010KT P6SM SCT030 SCT060

 

KJFK 230842Z 2309/2412 36008KT P6SM SCT025 BKN250 FM231200 01008KT P6SM BKN250 
FM231700 VRB03KT P6SM BKN150 FM231900 18008KT P6SM BKN150 FM240300 VRB04KT P6SM BKN120 
FM240700 02005KT P6SM BKN100

 

TJSJ 230534Z 2306/2406 10007KT P6SM FEW021 SCT035 BKN045 FM231300 08013KT P6SM FEW030 
FM232300 09010KT P6SM FEW025

 

MUHA 230500Z 2306/2406 VRB03KT 9000 FEW025 BECMG 2311/2315 17010KT SCT030 
BECMG 2317/2320 BKN025

 

TAF MUGM 2307/2407 36008KT 9999 FEW020 SCT120 QNH2992INS BECMG 2313/2315 15010KT 9999 FEW020 SCT120 BKN250 QNH2995INS BECMG 2401/2403 36003KT 9999 FEW035 SCT250 QNH2990INS T24/2310Z T29/2318Z FN00180

 

TAF TNCC 230900Z 2312/2412 09016G30KT 9999 SCT020 TEMPO 2312/2314 BKN015

 

MKJP 230515Z 2306/2406 36005KT 9999 FEW022 BECMG 2314/2316 14020KT BECMG 2301/2303 35005KT

 

PREPARADO POR: ARISLEYDA DE LA CRUZ DONNATORG. 23 DE MAYO DEL 2017-